createdAt,value
2023-01-13T00:02:14.534Z,6.18
2023-01-13T00:07:16.247Z,6.15
2023-01-13T00:12:17.856Z,6.08
2023-01-13T00:17:19.506Z,6.00
2023-01-13T00:22:21.288Z,5.93
2023-01-13T00:27:24.966Z,5.90
2023-01-13T00:32:27.239Z,5.91
2023-01-13T00:37:28.869Z,5.87
2023-01-13T00:42:49.031Z,5.83
2023-01-13T00:47:50.724Z,5.73
2023-01-13T00:52:52.463Z,5.73
2023-01-13T00:57:54.091Z,5.73
2023-01-13T01:02:56.071Z,5.69
2023-01-13T01:07:57.685Z,5.69
2023-01-13T01:12:59.437Z,5.71
2023-01-13T01:18:01.052Z,5.67
2023-01-13T01:23:02.675Z,5.68
2023-01-13T01:28:04.359Z,5.68
2023-01-13T01:33:06.420Z,5.64
2023-01-13T01:38:08.034Z,5.42
2023-01-13T01:43:34.753Z,5.41
2023-01-13T01:48:42.164Z,5.38
2023-01-13T01:53:44.235Z,5.32
2023-01-13T01:58:49.934Z,5.34
2023-01-13T02:04:00.982Z,5.41
2023-01-13T02:09:03.174Z,5.47
2023-01-13T02:14:04.821Z,5.48
2023-01-13T02:19:45.040Z,5.46
2023-01-13T02:25:40.646Z,5.46
2023-01-13T02:31:06.102Z,5.46
2023-01-13T02:36:20.760Z,5.43
2023-01-13T02:41:55.315Z,5.39
2023-01-13T02:47:08.042Z,5.41
2023-01-13T02:52:33.707Z,5.39
2023-01-13T02:57:37.296Z,5.38
2023-01-13T03:02:39.438Z,5.34
2023-01-13T03:08:02.962Z,5.27
2023-01-13T03:13:27.211Z,5.19
2023-01-13T03:18:35.927Z,5.17
2023-01-13T03:23:51.189Z,5.00
2023-01-13T03:28:59.675Z,5.00
2023-01-13T03:34:07.172Z,4.98
2023-01-13T03:39:13.509Z,4.97
2023-01-13T03:44:23.490Z,4.93
2023-01-13T03:49:32.190Z,4.88
2023-01-13T03:54:40.438Z,4.69
2023-01-13T03:59:46.722Z,4.60
2023-01-13T04:04:58.504Z,4.56
2023-01-13T04:10:03.984Z,4.57
2023-01-13T04:15:06.437Z,4.65
2023-01-13T04:20:09.248Z,4.75
2023-01-13T04:25:11.569Z,4.67
2023-01-13T04:30:13.827Z,4.75
2023-01-13T04:35:15.861Z,4.76
2023-01-13T04:40:18.768Z,4.76
2023-01-13T04:45:20.417Z,4.83
2023-01-13T04:50:22.827Z,4.87
2023-01-13T04:55:25.277Z,4.92
2023-01-13T05:00:27.054Z,4.92
2023-01-13T05:05:30.294Z,4.81
2023-01-13T05:10:32.077Z,4.81
2023-01-13T05:15:52.159Z,4.77
2023-01-13T05:20:53.832Z,4.71
2023-01-13T05:25:55.568Z,4.68
2023-01-13T05:30:57.282Z,4.67
2023-01-13T05:36:02.253Z,4.70
2023-01-13T05:41:22.213Z,4.71
2023-01-13T05:46:23.939Z,4.76
2023-01-13T05:51:26.472Z,4.79
2023-01-13T05:56:28.099Z,4.77
2023-01-13T06:01:29.784Z,4.69
2023-01-13T06:06:31.424Z,4.68
2023-01-13T06:11:33.059Z,4.68
2023-01-13T06:16:34.762Z,4.72
2023-01-13T06:21:36.463Z,4.67
2023-01-13T06:26:40.987Z,4.69
2023-01-13T06:31:43.157Z,4.69
2023-01-13T06:36:48.863Z,4.72
2023-01-13T06:42:11.872Z,4.73
2023-01-13T06:47:13.553Z,4.67
2023-01-13T06:52:15.160Z,4.66
2023-01-13T06:57:16.798Z,4.68
2023-01-13T07:02:18.517Z,4.66
2023-01-13T07:07:20.357Z,4.71
2023-01-13T07:12:22.004Z,4.71
2023-01-13T07:17:25.440Z,4.76
2023-01-13T07:22:27.296Z,4.73
2023-01-13T07:27:29.478Z,4.78
2023-01-13T07:32:33.345Z,4.82
2023-01-13T07:37:37.469Z,4.91
2023-01-13T07:42:57.580Z,5.01
2023-01-13T07:47:59.387Z,5.05
2023-01-13T07:53:01.296Z,5.17
2023-01-13T07:58:03.018Z,5.20
2023-01-13T08:03:04.823Z,5.20
2023-01-13T08:08:06.583Z,5.19
2023-01-13T08:13:22.251Z,5.29
2023-01-13T08:18:23.888Z,5.44
2023-01-13T08:23:25.543Z,5.51
2023-01-13T08:28:27.272Z,5.63
2023-01-13T08:33:29.888Z,5.66
2023-01-13T08:38:32.854Z,5.74
2023-01-13T08:43:34.544Z,5.87
2023-01-13T08:48:36.243Z,5.96
2023-01-13T08:53:37.964Z,6.02
2023-01-13T08:58:40.697Z,6.12
2023-01-13T09:03:42.345Z,6.21
2023-01-13T09:08:44.395Z,6.34
2023-01-13T09:13:46.165Z,6.43
2023-01-13T09:18:47.823Z,6.46
2023-01-13T09:23:49.715Z,6.48
2023-01-13T09:28:51.493Z,6.48
2023-01-13T09:34:11.823Z,6.47
2023-01-13T09:39:14.235Z,6.65
2023-01-13T09:44:49.092Z,6.87
2023-01-13T09:49:51.229Z,7.06
2023-01-13T09:55:03.629Z,7.20
2023-01-13T10:00:22.147Z,7.36
2023-01-13T10:05:45.049Z,7.43
2023-01-13T10:10:55.240Z,7.51
2023-01-13T10:16:24.134Z,7.64
2023-01-13T10:21:59.488Z,7.64
2023-01-13T10:27:05.533Z,7.76
2023-01-13T10:32:07.170Z,7.81
2023-01-13T10:37:24.151Z,7.65
2023-01-13T10:42:25.867Z,7.72
2023-01-13T10:47:30.911Z,7.79
2023-01-13T10:52:37.664Z,7.92
2023-01-13T10:57:39.687Z,8.14
2023-01-13T11:02:41.690Z,8.36
2023-01-13T11:07:52.531Z,8.50
2023-01-13T11:13:03.468Z,8.63
2023-01-13T11:18:13.382Z,8.63
2023-01-13T11:23:27.438Z,8.63
2023-01-13T11:28:47.665Z,8.70
2023-01-13T11:34:04.840Z,8.76
2023-01-13T11:39:29.407Z,8.95
2023-01-13T11:44:41.381Z,8.89
2023-01-13T11:49:48.513Z,8.98
2023-01-13T11:55:12.992Z,8.96
2023-01-13T12:00:28.024Z,9.04
2023-01-13T12:05:39.924Z,8.99
2023-01-13T12:10:53.615Z,8.93
2023-01-13T12:16:07.034Z,8.92
2023-01-13T12:21:29.022Z,8.79
2023-01-13T12:26:35.700Z,8.88
2023-01-13T12:31:39.970Z,8.80
2023-01-13T12:36:50.868Z,8.83
2023-01-13T12:42:50.169Z,8.88
2023-01-13T12:47:51.882Z,9.00
2023-01-13T12:53:30.676Z,8.96
2023-01-13T12:58:32.290Z,8.95
2023-01-13T13:03:35.382Z,9.09
2023-01-13T13:08:43.045Z,9.11
2023-01-13T13:13:44.925Z,9.18
2023-01-13T13:18:46.630Z,9.02
2023-01-13T13:24:11.135Z,8.91
2023-01-13T13:29:24.549Z,8.81
2023-01-13T13:34:42.188Z,8.74
2023-01-13T13:40:03.128Z,8.75
2023-01-13T13:45:39.987Z,8.83
2023-01-13T13:50:47.721Z,8.85
2023-01-13T13:55:54.739Z,8.64
2023-01-13T14:00:57.648Z,8.71
2023-01-13T14:06:04.847Z,8.58
2023-01-13T14:11:41.106Z,8.64
2023-01-13T14:16:43.038Z,8.58
2023-01-13T14:21:48.267Z,8.54
2023-01-13T14:26:52.076Z,8.52
2023-01-13T14:31:54.685Z,8.46
2023-01-13T14:36:56.435Z,8.29
2023-01-13T14:41:58.093Z,8.21
2023-01-13T14:47:03.619Z,8.05
2023-01-13T14:52:16.485Z,7.93
2023-01-13T14:57:25.948Z,7.89
2023-01-13T15:02:27.782Z,7.83
2023-01-13T15:07:31.934Z,7.78
2023-01-13T15:12:39.388Z,7.72
2023-01-13T15:17:42.542Z,7.71
2023-01-13T15:22:44.420Z,7.67
2023-01-13T15:27:50.211Z,7.61
2023-01-13T15:32:56.697Z,7.55
2023-01-13T15:37:58.379Z,7.53
2023-01-13T15:43:18.314Z,7.57
2023-01-13T15:48:26.331Z,7.67
2023-01-13T15:53:28.110Z,7.71
2023-01-13T15:58:31.512Z,7.64
2023-01-13T16:03:33.171Z,7.60
2023-01-13T16:08:34.954Z,7.57
2023-01-13T16:13:37.058Z,7.48
2023-01-13T16:18:38.722Z,7.39
2023-01-13T16:23:40.804Z,7.34
2023-01-13T16:28:42.525Z,7.29
2023-01-13T16:33:44.423Z,7.35
2023-01-13T16:38:47.094Z,7.36
2023-01-13T16:43:48.861Z,7.31
2023-01-13T16:48:53.105Z,7.32
2023-01-13T16:53:55.008Z,7.33
2023-01-13T16:59:00.083Z,7.31
2023-01-13T17:04:02.785Z,7.30
2023-01-13T17:09:15.163Z,7.22
2023-01-13T17:14:19.559Z,6.99
2023-01-13T17:19:22.810Z,6.87
2023-01-13T17:24:25.822Z,6.84
2023-01-13T17:29:27.790Z,6.81
2023-01-13T17:34:29.463Z,6.72
2023-01-13T17:39:31.075Z,6.66
2023-01-13T17:44:32.876Z,6.66
2023-01-13T17:49:34.746Z,6.64
2023-01-13T17:54:36.588Z,6.64
2023-01-13T17:59:38.537Z,6.59
2023-01-13T18:04:40.825Z,6.58
2023-01-13T18:09:42.797Z,6.55
2023-01-13T18:14:44.419Z,6.55
2023-01-13T18:20:05.710Z,6.53
2023-01-13T18:25:30.559Z,6.54
2023-01-13T18:30:32.253Z,6.60
2023-01-13T18:35:33.880Z,6.58
2023-01-13T18:40:35.694Z,6.59
2023-01-13T18:45:37.339Z,6.29
2023-01-13T18:50:38.924Z,6.40
2023-01-13T18:55:40.562Z,6.46
2023-01-13T19:00:42.384Z,6.54
2023-01-13T19:05:44.258Z,6.59
2023-01-13T19:10:46.540Z,6.59
2023-01-13T19:15:48.341Z,6.58
2023-01-13T19:20:50.415Z,6.63
2023-01-13T19:25:52.042Z,6.58
2023-01-13T19:30:53.787Z,6.53
2023-01-13T19:35:55.857Z,6.57
2023-01-13T19:40:59.570Z,6.51
2023-01-13T19:46:01.255Z,6.49
2023-01-13T19:51:03.679Z,6.41
2023-01-13T19:56:06.327Z,6.42
2023-01-13T20:01:10.183Z,6.41
2023-01-13T20:06:13.915Z,6.42
2023-01-13T20:11:30.872Z,6.37
2023-01-13T20:16:33.788Z,6.33
2023-01-13T20:21:35.480Z,6.30
2023-01-13T20:26:39.838Z,6.25
2023-01-13T20:31:41.533Z,6.29
2023-01-13T20:36:44.094Z,6.55
2023-01-13T20:42:04.471Z,6.81
2023-01-13T20:47:06.924Z,7.02
2023-01-13T20:52:11.130Z,7.34
2023-01-13T20:57:13.315Z,7.39
2023-01-13T21:02:16.611Z,7.52
2023-01-13T21:07:18.331Z,7.50
2023-01-13T21:12:38.605Z,7.48
2023-01-13T21:17:58.822Z,7.50
2023-01-13T21:23:02.499Z,7.62
2023-01-13T21:28:08.102Z,7.58
2023-01-13T21:33:13.283Z,7.52
2023-01-13T21:38:14.914Z,7.49
2023-01-13T21:43:35.015Z,7.47
2023-01-13T21:48:36.702Z,7.48
2023-01-13T21:53:38.323Z,7.42
2023-01-13T21:58:40.313Z,7.44
2023-01-13T22:04:00.632Z,7.43
2023-01-13T22:09:04.064Z,7.51
2023-01-13T22:14:06.785Z,7.48
2023-01-13T22:19:09.931Z,7.58
2023-01-13T22:24:12.103Z,7.72
2023-01-13T22:29:13.768Z,7.69
2023-01-13T22:34:15.433Z,7.68
2023-01-13T22:39:17.288Z,7.75
2023-01-13T22:44:19.602Z,7.65
2023-01-13T22:49:21.528Z,7.62
2023-01-13T22:54:23.472Z,7.59
2023-01-13T22:59:25.297Z,7.52
2023-01-13T23:04:26.990Z,7.52
2023-01-13T23:09:29.997Z,7.59
2023-01-13T23:14:31.735Z,7.56
2023-01-13T23:19:33.725Z,7.55
2023-01-13T23:24:35.386Z,7.43
2023-01-13T23:29:37.135Z,7.34
2023-01-13T23:34:38.716Z,7.29
2023-01-13T23:39:40.509Z,7.28
2023-01-13T23:44:42.349Z,7.18
2023-01-13T23:49:44.070Z,7.13
2023-01-13T23:54:45.904Z,7.08
2023-01-13T23:59:47.495Z,7.06
